sensor_id;sensor_type;location;lat;lon;timestamp;P1;durP1;ratioP1;P2;durP2;ratioP2
55220;SDS011;41089;51.448;6.604;2022-07-23T00:04:14;6.80;;;5.53;;
55220;SDS011;41089;51.448;6.604;2022-07-23T00:10:14;6.93;;;5.27;;
55220;SDS011;41089;51.448;6.604;2022-07-23T00:16:15;9.15;;;4.72;;
55220;SDS011;41089;51.448;6.604;2022-07-23T00:22:15;7.67;;;5.40;;
55220;SDS011;41089;51.448;6.604;2022-07-23T00:28:16;5.80;;;4.97;;
55220;SDS011;41089;51.448;6.604;2022-07-23T00:34:16;8.77;;;5.32;;
55220;SDS011;41089;51.448;6.604;2022-07-23T00:40:16;11.13;;;5.83;;
55220;SDS011;41089;51.448;6.604;2022-07-23T00:46:20;10.70;;;6.50;;
55220;SDS011;41089;51.448;6.604;2022-07-23T00:52:21;7.25;;;6.38;;
55220;SDS011;41089;51.448;6.604;2022-07-23T00:58:22;7.10;;;5.43;;
55220;SDS011;41089;51.448;6.604;2022-07-23T01:04:22;7.20;;;5.28;;
55220;SDS011;41089;51.448;6.604;2022-07-23T01:10:23;7.30;;;5.40;;
55220;SDS011;41089;51.448;6.604;2022-07-23T01:16:32;7.20;;;5.07;;
55220;SDS011;41089;51.448;6.604;2022-07-23T01:22:32;9.23;;;5.88;;
55220;SDS011;41089;51.448;6.604;2022-07-23T01:28:33;10.77;;;7.45;;
55220;SDS011;41089;51.448;6.604;2022-07-23T01:34:33;6.68;;;6.05;;
55220;SDS011;41089;51.448;6.604;2022-07-23T01:40:34;9.10;;;6.83;;
55220;SDS011;41089;51.448;6.604;2022-07-23T01:46:34;5.85;;;4.93;;
55220;SDS011;41089;51.448;6.604;2022-07-23T01:52:35;6.63;;;5.65;;
55220;SDS011;41089;51.448;6.604;2022-07-23T01:58:35;6.70;;;5.75;;
55220;SDS011;41089;51.448;6.604;2022-07-23T02:04:36;6.72;;;5.40;;
55220;SDS011;41089;51.448;6.604;2022-07-23T02:10:36;6.30;;;5.70;;
55220;SDS011;41089;51.448;6.604;2022-07-23T02:16:37;9.52;;;6.00;;
55220;SDS011;41089;51.448;6.604;2022-07-23T02:22:38;8.43;;;6.95;;
55220;SDS011;41089;51.448;6.604;2022-07-23T02:28:38;9.55;;;6.45;;
55220;SDS011;41089;51.448;6.604;2022-07-23T02:34:39;7.13;;;6.40;;
55220;SDS011;41089;51.448;6.604;2022-07-23T02:40:39;8.47;;;7.03;;
55220;SDS011;41089;51.448;6.604;2022-07-23T02:46:40;12.88;;;9.88;;
55220;SDS011;41089;51.448;6.604;2022-07-23T02:52:40;8.88;;;6.90;;
55220;SDS011;41089;51.448;6.604;2022-07-23T02:58:41;11.55;;;8.38;;
55220;SDS011;41089;51.448;6.604;2022-07-23T03:04:41;11.50;;;8.02;;
55220;SDS011;41089;51.448;6.604;2022-07-23T03:10:42;13.18;;;6.40;;
55220;SDS011;41089;51.448;6.604;2022-07-23T03:16:42;8.43;;;7.40;;
55220;SDS011;41089;51.448;6.604;2022-07-23T03:22:43;8.87;;;7.90;;
55220;SDS011;41089;51.448;6.604;2022-07-23T03:28:43;9.10;;;7.82;;
55220;SDS011;41089;51.448;6.604;2022-07-23T03:34:44;11.38;;;8.48;;
55220;SDS011;41089;51.448;6.604;2022-07-23T03:40:44;8.32;;;7.45;;
55220;SDS011;41089;51.448;6.604;2022-07-23T03:46:45;8.80;;;6.50;;
55220;SDS011;41089;51.448;6.604;2022-07-23T03:52:45;9.85;;;7.28;;
55220;SDS011;41089;51.448;6.604;2022-07-23T03:58:45;12.40;;;8.40;;
55220;SDS011;41089;51.448;6.604;2022-07-23T04:04:46;8.70;;;7.80;;
55220;SDS011;41089;51.448;6.604;2022-07-23T04:10:46;10.75;;;7.30;;
55220;SDS011;41089;51.448;6.604;2022-07-23T04:16:47;9.67;;;8.77;;
55220;SDS011;41089;51.448;6.604;2022-07-23T04:22:47;9.88;;;8.60;;
55220;SDS011;41089;51.448;6.604;2022-07-23T04:28:48;9.15;;;8.00;;
55220;SDS011;41089;51.448;6.604;2022-07-23T04:34:48;9.10;;;7.63;;
55220;SDS011;41089;51.448;6.604;2022-07-23T04:40:49;10.43;;;8.57;;
55220;SDS011;41089;51.448;6.604;2022-07-23T04:46:49;9.15;;;8.25;;
55220;SDS011;41089;51.448;6.604;2022-07-23T04:52:49;13.45;;;9.38;;
55220;SDS011;41089;51.448;6.604;2022-07-23T04:58:50;8.80;;;7.93;;
55220;SDS011;41089;51.448;6.604;2022-07-23T05:04:50;9.27;;;8.23;;
55220;SDS011;41089;51.448;6.604;2022-07-23T05:10:51;11.73;;;8.55;;
55220;SDS011;41089;51.448;6.604;2022-07-23T05:16:51;12.90;;;10.43;;
55220;SDS011;41089;51.448;6.604;2022-07-23T05:22:52;11.18;;;8.30;;
55220;SDS011;41089;51.448;6.604;2022-07-23T05:28:52;11.27;;;8.40;;
55220;SDS011;41089;51.448;6.604;2022-07-23T05:34:53;11.80;;;9.20;;
55220;SDS011;41089;51.448;6.604;2022-07-23T05:40:53;10.67;;;8.50;;
55220;SDS011;41089;51.448;6.604;2022-07-23T05:46:54;9.00;;;8.18;;
55220;SDS011;41089;51.448;6.604;2022-07-23T05:52:54;10.33;;;8.73;;
55220;SDS011;41089;51.448;6.604;2022-07-23T05:58:55;10.47;;;8.03;;
55220;SDS011;41089;51.448;6.604;2022-07-23T06:04:55;12.88;;;9.27;;
55220;SDS011;41089;51.448;6.604;2022-07-23T06:10:55;10.30;;;9.15;;
55220;SDS011;41089;51.448;6.604;2022-07-23T06:16:56;12.97;;;9.37;;
55220;SDS011;41089;51.448;6.604;2022-07-23T06:22:56;9.80;;;8.57;;
55220;SDS011;41089;51.448;6.604;2022-07-23T06:28:56;8.73;;;7.80;;
55220;SDS011;41089;51.448;6.604;2022-07-23T06:34:57;13.43;;;10.10;;
55220;SDS011;41089;51.448;6.604;2022-07-23T06:40:57;8.88;;;7.80;;
55220;SDS011;41089;51.448;6.604;2022-07-23T06:46:58;9.33;;;7.00;;
55220;SDS011;41089;51.448;6.604;2022-07-23T06:52:58;9.13;;;7.40;;
55220;SDS011;41089;51.448;6.604;2022-07-23T06:58:58;11.02;;;8.20;;
55220;SDS011;41089;51.448;6.604;2022-07-23T07:04:59;9.60;;;8.70;;
55220;SDS011;41089;51.448;6.604;2022-07-23T07:11:00;10.07;;;7.18;;
55220;SDS011;41089;51.448;6.604;2022-07-23T07:17:01;11.10;;;6.90;;
55220;SDS011;41089;51.448;6.604;2022-07-23T07:23:01;8.83;;;6.33;;
55220;SDS011;41089;51.448;6.604;2022-07-23T07:29:02;8.40;;;5.20;;
55220;SDS011;41089;51.448;6.604;2022-07-23T07:35:03;7.68;;;5.32;;
55220;SDS011;41089;51.448;6.604;2022-07-23T07:41:04;9.38;;;6.03;;
55220;SDS011;41089;51.448;6.604;2022-07-23T07:47:04;6.88;;;5.35;;
55220;SDS011;41089;51.448;6.604;2022-07-23T07:53:05;9.50;;;5.73;;
55220;SDS011;41089;51.448;6.604;2022-07-23T07:59:05;13.23;;;5.93;;
55220;SDS011;41089;51.448;6.604;2022-07-23T08:05:05;10.15;;;5.57;;
55220;SDS011;41089;51.448;6.604;2022-07-23T08:11:06;6.70;;;4.60;;
55220;SDS011;41089;51.448;6.604;2022-07-23T08:17:07;7.55;;;4.35;;
55220;SDS011;41089;51.448;6.604;2022-07-23T08:23:07;5.47;;;4.10;;
55220;SDS011;41089;51.448;6.604;2022-07-23T08:29:08;5.70;;;4.30;;
55220;SDS011;41089;51.448;6.604;2022-07-23T08:35:09;7.55;;;4.97;;
55220;SDS011;41089;51.448;6.604;2022-07-23T08:41:10;6.55;;;4.03;;
55220;SDS011;41089;51.448;6.604;2022-07-23T08:47:11;7.82;;;4.22;;
55220;SDS011;41089;51.448;6.604;2022-07-23T08:53:12;4.55;;;3.85;;
55220;SDS011;41089;51.448;6.604;2022-07-23T08:59:13;5.15;;;3.80;;
55220;SDS011;41089;51.448;6.604;2022-07-23T09:05:34;7.72;;;4.40;;
55220;SDS011;41089;51.448;6.604;2022-07-23T09:11:34;5.10;;;3.37;;
55220;SDS011;41089;51.448;6.604;2022-07-23T09:17:38;4.10;;;3.43;;
55220;SDS011;41089;51.448;6.604;2022-07-23T09:29:57;4.63;;;3.95;;
55220;SDS011;41089;51.448;6.604;2022-07-23T09:35:57;4.33;;;3.43;;
55220;SDS011;41089;51.448;6.604;2022-07-23T09:41:58;4.15;;;3.15;;
55220;SDS011;41089;51.448;6.604;2022-07-23T09:48:16;4.00;;;3.60;;
55220;SDS011;41089;51.448;6.604;2022-07-23T09:54:21;4.53;;;3.28;;
55220;SDS011;41089;51.448;6.604;2022-07-23T10:00:24;4.20;;;3.20;;
55220;SDS011;41089;51.448;6.604;2022-07-23T10:06:25;4.50;;;2.85;;
55220;SDS011;41089;51.448;6.604;2022-07-23T10:12:26;4.70;;;3.75;;
55220;SDS011;41089;51.448;6.604;2022-07-23T10:18:46;4.53;;;2.70;;
55220;SDS011;41089;51.448;6.604;2022-07-23T10:31:06;5.38;;;3.38;;
55220;SDS011;41089;51.448;6.604;2022-07-23T10:37:17;4.47;;;2.90;;
55220;SDS011;41089;51.448;6.604;2022-07-23T10:43:25;4.55;;;2.92;;
55220;SDS011;41089;51.448;6.604;2022-07-23T10:49:27;4.47;;;3.97;;
55220;SDS011;41089;51.448;6.604;2022-07-23T11:01:35;3.73;;;2.90;;
55220;SDS011;41089;51.448;6.604;2022-07-23T11:07:39;5.35;;;2.90;;
55220;SDS011;41089;51.448;6.604;2022-07-23T11:14:11;5.00;;;2.92;;
55220;SDS011;41089;51.448;6.604;2022-07-23T11:32:41;3.50;;;2.80;;
55220;SDS011;41089;51.448;6.604;2022-07-23T11:38:42;4.68;;;2.80;;
55220;SDS011;41089;51.448;6.604;2022-07-23T11:44:46;2.67;;;2.30;;
55220;SDS011;41089;51.448;6.604;2022-07-23T11:50:47;2.75;;;2.28;;
55220;SDS011;41089;51.448;6.604;2022-07-23T11:56:57;5.13;;;2.63;;
55220;SDS011;41089;51.448;6.604;2022-07-23T12:02:59;3.33;;;2.33;;
55220;SDS011;41089;51.448;6.604;2022-07-23T12:09:02;2.28;;;2.08;;
55220;SDS011;41089;51.448;6.604;2022-07-23T12:15:02;6.28;;;2.53;;
55220;SDS011;41089;51.448;6.604;2022-07-23T12:21:04;2.35;;;2.03;;
55220;SDS011;41089;51.448;6.604;2022-07-23T12:27:11;3.08;;;2.28;;
55220;SDS011;41089;51.448;6.604;2022-07-23T12:33:14;2.50;;;2.13;;
55220;SDS011;41089;51.448;6.604;2022-07-23T12:39:30;3.67;;;2.22;;
55220;SDS011;41089;51.448;6.604;2022-07-23T12:45:51;3.70;;;2.45;;
55220;SDS011;41089;51.448;6.604;2022-07-23T12:51:51;2.50;;;2.17;;
55220;SDS011;41089;51.448;6.604;2022-07-23T12:57:52;3.72;;;2.60;;
55220;SDS011;41089;51.448;6.604;2022-07-23T13:10:19;4.78;;;2.30;;
55220;SDS011;41089;51.448;6.604;2022-07-23T13:16:19;2.42;;;2.17;;
55220;SDS011;41089;51.448;6.604;2022-07-23T13:22:19;3.73;;;2.37;;
55220;SDS011;41089;51.448;6.604;2022-07-23T13:28:20;3.28;;;2.00;;
55220;SDS011;41089;51.448;6.604;2022-07-23T13:34:22;3.30;;;2.00;;
55220;SDS011;41089;51.448;6.604;2022-07-23T13:40:23;2.65;;;1.88;;
55220;SDS011;41089;51.448;6.604;2022-07-23T13:46:23;2.57;;;2.07;;
55220;SDS011;41089;51.448;6.604;2022-07-23T13:52:24;2.72;;;2.20;;
55220;SDS011;41089;51.448;6.604;2022-07-23T13:58:25;4.55;;;2.08;;
55220;SDS011;41089;51.448;6.604;2022-07-23T14:04:26;4.97;;;2.42;;
55220;SDS011;41089;51.448;6.604;2022-07-23T14:10:27;4.38;;;2.20;;
55220;SDS011;41089;51.448;6.604;2022-07-23T14:16:27;4.53;;;2.47;;
55220;SDS011;41089;51.448;6.604;2022-07-23T14:22:28;3.40;;;2.27;;
55220;SDS011;41089;51.448;6.604;2022-07-23T14:28:28;2.97;;;2.60;;
55220;SDS011;41089;51.448;6.604;2022-07-23T14:34:29;3.80;;;2.50;;
55220;SDS011;41089;51.448;6.604;2022-07-23T14:40:29;4.30;;;2.20;;
55220;SDS011;41089;51.448;6.604;2022-07-23T14:46:30;2.90;;;2.03;;
55220;SDS011;41089;51.448;6.604;2022-07-23T14:52:30;3.95;;;2.83;;
55220;SDS011;41089;51.448;6.604;2022-07-23T14:58:31;3.70;;;2.40;;
55220;SDS011;41089;51.448;6.604;2022-07-23T15:04:32;4.15;;;2.50;;
55220;SDS011;41089;51.448;6.604;2022-07-23T15:10:32;4.00;;;2.33;;
55220;SDS011;41089;51.448;6.604;2022-07-23T15:16:33;4.82;;;2.50;;
55220;SDS011;41089;51.448;6.604;2022-07-23T15:22:34;4.07;;;2.60;;
55220;SDS011;41089;51.448;6.604;2022-07-23T15:28:34;4.35;;;2.33;;
55220;SDS011;41089;51.448;6.604;2022-07-23T15:34:36;3.75;;;2.50;;
55220;SDS011;41089;51.448;6.604;2022-07-23T15:40:37;3.80;;;3.00;;
55220;SDS011;41089;51.448;6.604;2022-07-23T15:46:37;2.83;;;2.40;;
55220;SDS011;41089;51.448;6.604;2022-07-23T15:52:38;3.70;;;2.47;;
55220;SDS011;41089;51.448;6.604;2022-07-23T15:58:38;2.93;;;2.63;;
55220;SDS011;41089;51.448;6.604;2022-07-23T16:04:39;3.47;;;2.80;;
55220;SDS011;41089;51.448;6.604;2022-07-23T16:10:39;2.90;;;2.60;;
55220;SDS011;41089;51.448;6.604;2022-07-23T16:16:40;3.67;;;2.37;;
55220;SDS011;41089;51.448;6.604;2022-07-23T16:22:41;3.55;;;2.50;;
55220;SDS011;41089;51.448;6.604;2022-07-23T16:28:41;4.57;;;2.47;;
55220;SDS011;41089;51.448;6.604;2022-07-23T16:34:42;3.25;;;2.70;;
55220;SDS011;41089;51.448;6.604;2022-07-23T16:40:43;2.33;;;2.00;;
55220;SDS011;41089;51.448;6.604;2022-07-23T16:46:43;3.55;;;2.60;;
55220;SDS011;41089;51.448;6.604;2022-07-23T16:52:44;4.28;;;2.65;;
55220;SDS011;41089;51.448;6.604;2022-07-23T16:58:44;3.07;;;2.77;;
55220;SDS011;41089;51.448;6.604;2022-07-23T17:04:45;5.53;;;2.53;;
55220;SDS011;41089;51.448;6.604;2022-07-23T17:10:45;3.90;;;2.83;;
55220;SDS011;41089;51.448;6.604;2022-07-23T17:16:46;3.00;;;2.50;;
55220;SDS011;41089;51.448;6.604;2022-07-23T17:22:46;2.53;;;2.33;;
55220;SDS011;41089;51.448;6.604;2022-07-23T17:28:47;3.37;;;3.07;;
55220;SDS011;41089;51.448;6.604;2022-07-23T17:34:47;5.50;;;3.72;;
55220;SDS011;41089;51.448;6.604;2022-07-23T17:40:48;6.03;;;3.43;;
55220;SDS011;41089;51.448;6.604;2022-07-23T17:46:48;3.53;;;2.67;;
55220;SDS011;41089;51.448;6.604;2022-07-23T17:52:52;3.00;;;2.80;;
55220;SDS011;41089;51.448;6.604;2022-07-23T17:58:54;3.13;;;2.35;;
55220;SDS011;41089;51.448;6.604;2022-07-23T18:04:54;3.00;;;2.42;;
55220;SDS011;41089;51.448;6.604;2022-07-23T18:10:54;4.25;;;2.47;;
55220;SDS011;41089;51.448;6.604;2022-07-23T18:16:56;2.70;;;2.50;;
55220;SDS011;41089;51.448;6.604;2022-07-23T18:22:58;4.13;;;2.70;;
55220;SDS011;41089;51.448;6.604;2022-07-23T18:29:06;3.15;;;2.67;;
55220;SDS011;41089;51.448;6.604;2022-07-23T18:35:08;3.95;;;2.83;;
55220;SDS011;41089;51.448;6.604;2022-07-23T18:41:11;3.28;;;2.60;;
55220;SDS011;41089;51.448;6.604;2022-07-23T18:47:12;3.70;;;2.63;;
55220;SDS011;41089;51.448;6.604;2022-07-23T18:53:12;4.00;;;2.87;;
55220;SDS011;41089;51.448;6.604;2022-07-23T18:59:13;2.90;;;2.63;;
55220;SDS011;41089;51.448;6.604;2022-07-23T19:05:13;3.57;;;2.97;;
55220;SDS011;41089;51.448;6.604;2022-07-23T19:11:13;3.83;;;2.70;;
55220;SDS011;41089;51.448;6.604;2022-07-23T19:17:14;3.50;;;3.20;;
55220;SDS011;41089;51.448;6.604;2022-07-23T19:23:14;4.57;;;3.57;;
55220;SDS011;41089;51.448;6.604;2022-07-23T19:29:15;3.70;;;3.40;;
55220;SDS011;41089;51.448;6.604;2022-07-23T19:35:15;5.87;;;3.47;;
55220;SDS011;41089;51.448;6.604;2022-07-23T19:41:16;3.43;;;3.10;;
55220;SDS011;41089;51.448;6.604;2022-07-23T19:47:16;7.00;;;4.27;;
55220;SDS011;41089;51.448;6.604;2022-07-23T19:53:17;10.17;;;3.60;;
55220;SDS011;41089;51.448;6.604;2022-07-23T19:59:17;3.87;;;2.93;;
55220;SDS011;41089;51.448;6.604;2022-07-23T20:05:18;4.97;;;3.33;;
55220;SDS011;41089;51.448;6.604;2022-07-23T20:11:18;6.60;;;3.20;;
55220;SDS011;41089;51.448;6.604;2022-07-23T20:17:19;5.97;;;3.38;;
55220;SDS011;41089;51.448;6.604;2022-07-23T20:23:20;4.88;;;3.40;;
55220;SDS011;41089;51.448;6.604;2022-07-23T20:29:20;4.20;;;3.53;;
55220;SDS011;41089;51.448;6.604;2022-07-23T20:35:22;5.00;;;3.60;;
55220;SDS011;41089;51.448;6.604;2022-07-23T20:41:23;4.35;;;3.92;;
55220;SDS011;41089;51.448;6.604;2022-07-23T20:47:23;5.67;;;3.67;;
55220;SDS011;41089;51.448;6.604;2022-07-23T20:53:24;6.60;;;4.43;;
55220;SDS011;41089;51.448;6.604;2022-07-23T20:59:24;4.00;;;3.60;;
55220;SDS011;41089;51.448;6.604;2022-07-23T21:05:24;6.03;;;3.50;;
55220;SDS011;41089;51.448;6.604;2022-07-23T21:11:25;5.35;;;4.10;;
55220;SDS011;41089;51.448;6.604;2022-07-23T21:17:25;4.50;;;4.03;;
55220;SDS011;41089;51.448;6.604;2022-07-23T21:23:26;6.30;;;4.30;;
55220;SDS011;41089;51.448;6.604;2022-07-23T21:29:26;5.38;;;4.18;;
55220;SDS011;41089;51.448;6.604;2022-07-23T21:35:27;4.65;;;4.22;;
55220;SDS011;41089;51.448;6.604;2022-07-23T21:41:27;4.93;;;4.50;;
55220;SDS011;41089;51.448;6.604;2022-07-23T21:47:29;9.43;;;4.93;;
55220;SDS011;41089;51.448;6.604;2022-07-23T21:53:29;7.40;;;4.07;;
55220;SDS011;41089;51.448;6.604;2022-07-23T21:59:29;5.20;;;4.10;;
55220;SDS011;41089;51.448;6.604;2022-07-23T22:05:30;6.33;;;4.37;;
55220;SDS011;41089;51.448;6.604;2022-07-23T22:11:30;6.00;;;4.93;;
55220;SDS011;41089;51.448;6.604;2022-07-23T22:17:31;5.70;;;4.85;;
55220;SDS011;41089;51.448;6.604;2022-07-23T22:23:31;5.60;;;4.68;;
55220;SDS011;41089;51.448;6.604;2022-07-23T22:29:32;6.75;;;4.45;;
55220;SDS011;41089;51.448;6.604;2022-07-23T22:35:32;5.60;;;4.95;;
55220;SDS011;41089;51.448;6.604;2022-07-23T22:41:33;5.72;;;4.85;;
55220;SDS011;41089;51.448;6.604;2022-07-23T22:47:34;5.90;;;4.88;;
55220;SDS011;41089;51.448;6.604;2022-07-23T22:53:34;5.37;;;4.87;;
55220;SDS011;41089;51.448;6.604;2022-07-23T22:59:34;10.30;;;5.10;;
55220;SDS011;41089;51.448;6.604;2022-07-23T23:05:35;5.78;;;5.28;;
55220;SDS011;41089;51.448;6.604;2022-07-23T23:11:35;6.57;;;5.80;;
55220;SDS011;41089;51.448;6.604;2022-07-23T23:17:36;7.80;;;5.65;;
55220;SDS011;41089;51.448;6.604;2022-07-23T23:23:36;7.97;;;6.07;;
55220;SDS011;41089;51.448;6.604;2022-07-23T23:29:37;8.13;;;5.97;;
55220;SDS011;41089;51.448;6.604;2022-07-23T23:35:38;8.47;;;5.80;;
55220;SDS011;41089;51.448;6.604;2022-07-23T23:41:38;4.72;;;4.30;;
55220;SDS011;41089;51.448;6.604;2022-07-23T23:47:39;7.27;;;5.73;;
55220;SDS011;41089;51.448;6.604;2022-07-23T23:53:39;5.50;;;5.00;;
55220;SDS011;41089;51.448;6.604;2022-07-23T23:59:40;9.77;;;5.20;;
